NCAR-RAP Real-Time Weather Data

Output produced by METARs form (17 October 2018  16:20 UTC)
found at http://weather.rap.ucar.edu/surface/
 
RJTF 170700Z 33005KT 9999 FEW030 BKN070 BKN/// 20/10 Q1011
RJTF 170600Z 33008KT 9999 FEW030 SCT050 BKN080 21/11 Q1010
RJTF 170500Z 34006KT 280V020 9999 FEW035 SCT045 BKN080 22/12 Q1009
RJTF 170400Z 35006KT 300V050 9999 FEW035 SCT080 BKN/// 22/12 Q1009
RJTF 170300Z 03007KT 330V090 9999 FEW035 BKN/// 22/13 Q1010
RJTF 170200Z 02006KT 350V060 9999 FEW030 BKN/// 22/14 Q1010
RJTF 170100Z 36005KT 320V030 9999 FEW025 SCT130 BKN/// 20/13 Q1011
RJTF 170000Z 35006KT 310V030 9999 FEW020 SCT120 BKN/// 19/13 Q1011
RJTF 162330Z 35004KT 320V030 9999 FEW020 BKN120 BKN/// 17/14 Q1011
RJTF 160700Z 35003KT 9999 FEW030 BKN/// 20/13 Q1012
RJTF 160600Z 01004KT 340V050 9999 FEW030 SCT160 BKN/// 21/12 Q1012
RJTF 160500Z VRB02KT 9999 FEW030 SCT050 BKN/// 21/12 Q1012
RJTF 160400Z 35005KT 310V020 9999 FEW030 BKN160 BKN/// 21/13 Q1013
RJTF 160300Z 36006KT 320V050 9999 FEW030 SCT160 BKN/// 21/12 Q1013
RJTF 160200Z 34003KT 270V070 9999 FEW030 SCT180 BKN/// 20/14 Q1014
RJTF 160100Z 34004KT 290V030 9999 FEW030 SCT180 BKN/// 19/14 Q1015
RJTF 160000Z 36004KT 8000 FEW030 BKN180 BKN/// 18/14 Q1016
RJTF 152330Z 36004KT 330V040 6000 FEW030 SCT120 BKN/// 17/14 Q1016
RJTF 150700Z 34002KT 9999 -RA FEW030 SCT040 BKN110 19/14 Q1017
RJTF 150600Z 35003KT 320V030 9999 FEW030 SCT040 BKN120 20/14 Q1016
RJTF 150500Z 06003KT 020V090 9999 FEW030 SCT040 BKN100 20/13 Q1016